Nantwich, United Kingdom
Current Conditions -  °F | °C
As of 5:50 PM on Monday 26 Jan 2015 (Local Time) from EGOS Reporting Station
Broken Clouds Broken Clouds  
Wind Chill: 35°   Ceiling: 22000
Heat Index: 41°   Visibility: 6mi
Dew Point: 34°   Wind: 10mph
Humidity: 76%   Direction: 280°W
Pressure: 30.3"   Gusts: NA
Location:  53.07°N, 2.52°W
Report Text: EGOS 261750Z 28009KT 9999 FEW035 BKN220 05/01 Q1026 BLU NOSIG
Loading
Personal Weather Stations






























Interactive Weather Map New forecast layout! Learn more

10-Day Weather Forecast

Advertisements
Track Severe Weather on mobile